»·PEaware :: ASA113 KSEA-KPDX

ASA113 :: KSEA-KPDX

FLIGHT INFORMATION

Flight Status: Arrived
Operator:
Alaska Airlines
More flights by this operator :: More flights under this callsign
Pilot: Mike D. (17473)
Aircraft: BOEING 737-800
(B738)
More flights by this aircraft type
Origin: KSEA Seattle-Tacoma Intl
United States
Destination: KPDX Portland Intl
United States
More flights between these airports :: More routes between these airports
Route: SEA7 SEA BUWZO KRATR2
File this flight plan on PilotEdge
Remarks:
Altitude:
(Current/Filed)
17,000ft
Speed:
(Current/Filed)
372kts
Departed: 13-Jan-21 09:35 PM
Arrived: 13-Jan-21 10:04 PM
Distance/Time
Traveled:
112nm/0:28
Distance/Time
To Go:
Arrived

Flight Plot

Page will automatically refresh every two minutes.

Flight plan parsing failed; only flown route is shown


Map Options




Map Legend


Flown Route
Filed Route
Departure Airport
Arrival Airport
Navaid (VOR, NDB)
Fix

Horizontal Profiles

Position Reports

Time Latitude Longitude Heading Altitude Ground
Speed
13-Jan-21 21:03 47.446830 -122.303600 214 443ft 0kts
13-Jan-21 21:04 47.446830 -122.303600 214 443ft 0kts
13-Jan-21 21:05 47.446830 -122.303600 214 443ft 0kts
13-Jan-21 21:07 47.446830 -122.303600 214 443ft 0kts
13-Jan-21 21:08 47.446830 -122.303600 214 443ft 0kts
13-Jan-21 21:09 47.446830 -122.303600 214 443ft 0kts
13-Jan-21 21:10 47.446830 -122.303600 214 443ft 0kts
13-Jan-21 21:11 47.446830 -122.303600 214 443ft 0kts
13-Jan-21 21:12 47.446830 -122.303600 214 443ft 0kts
13-Jan-21 21:13 47.446830 -122.303600 214 443ft 0kts
13-Jan-21 21:14 47.446830 -122.303600 214 443ft 0kts
13-Jan-21 21:15 47.446830 -122.303600 214 443ft 0kts
13-Jan-21 21:16 47.446830 -122.303600 214 443ft 0kts
13-Jan-21 21:17 47.446830 -122.303600 214 443ft 0kts
13-Jan-21 21:18 47.446830 -122.303600 214 443ft 0kts
13-Jan-21 21:19 47.446830 -122.303600 214 443ft 0kts
13-Jan-21 21:20 47.446830 -122.303600 214 443ft 0kts
13-Jan-21 21:21 47.446830 -122.303600 214 443ft 0kts
13-Jan-21 21:21 47.446830 -122.303600 214 443ft 0kts
13-Jan-21 21:23 47.446961 -122.303469 215 443ft 2kts
13-Jan-21 21:24 47.447070 -122.302783 297 443ft 1kts
13-Jan-21 21:24 47.447056 -122.302739 294 443ft 0kts
13-Jan-21 21:26 47.447056 -122.302739 294 443ft 0kts
13-Jan-21 21:26 47.447056 -122.302739 294 443ft 0kts
13-Jan-21 21:27 47.447160 -122.303046 299 443ft 4kts
13-Jan-21 21:28 47.448490 -122.306192 337 443ft 8kts
13-Jan-21 21:29 47.451561 -122.306232 0 443ft 14kts
13-Jan-21 21:30 47.456233 -122.306202 0 443ft 17kts
13-Jan-21 21:31 47.461224 -122.306148 0 443ft 17kts
13-Jan-21 21:32 47.463398 -122.306164 351 443ft 0kts
13-Jan-21 21:33 47.463640 -122.307302 237 443ft 8kts
13-Jan-21 21:34 47.445797 -122.307908 180 529ft 171kts
13-Jan-21 21:35 47.393679 -122.309607 191 3363ft 228kts
13-Jan-21 21:36 47.334517 -122.301915 164 7528ft 231kts
13-Jan-21 21:37 47.271368 -122.275493 157 10465ft 267kts
13-Jan-21 21:38 47.196261 -122.288178 186 12606ft 313kts
13-Jan-21 21:39 47.107346 -122.294629 191 15334ft 332kts
13-Jan-21 21:40 47.011325 -122.305304 190 17000ft 377kts
13-Jan-21 21:41 46.897232 -122.310464 186 17214ft 433kts
13-Jan-21 21:42 46.779788 -122.309692 186 17026ft 422kts
13-Jan-21 21:43 46.663554 -122.309609 186 16999ft 415kts
13-Jan-21 21:44 46.548864 -122.309604 186 16999ft 411kts
13-Jan-21 21:45 46.435391 -122.309548 186 17000ft 391kts
13-Jan-21 21:46 46.331739 -122.309534 187 16224ft 372kts
13-Jan-21 21:47 46.232160 -122.325168 205 13997ft 345kts
13-Jan-21 21:48 46.143501 -122.372915 206 11554ft 335kts
13-Jan-21 21:49 46.061159 -122.418225 206 10036ft 288kts
13-Jan-21 21:50 45.988055 -122.457668 205 8897ft 281kts
13-Jan-21 21:51 45.918369 -122.504500 223 7509ft 273kts
13-Jan-21 21:52 45.861926 -122.575664 225 6165ft 268kts
13-Jan-21 21:53 45.807917 -122.643829 224 5297ft 240kts
13-Jan-21 21:54 45.762646 -122.707685 235 4973ft 200kts
13-Jan-21 21:55 45.757029 -122.775608 295 5062ft 181kts
13-Jan-21 21:56 45.775511 -122.846274 264 5507ft 197kts
13-Jan-21 21:57 45.729335 -122.868728 174 4995ft 198kts
13-Jan-21 21:58 45.681485 -122.839109 131 3675ft 183kts
13-Jan-21 21:59 45.656656 -122.779986 115 2563ft 162kts
13-Jan-21 22:00 45.637019 -122.729193 116 1758ft 138kts
13-Jan-21 22:01 45.618494 -122.681147 117 992ft 137kts
13-Jan-21 22:02 45.599820 -122.633308 118 258ft 135kts
13-Jan-21 22:03 45.587087 -122.600733 118 39ft 23kts
13-Jan-21 22:04 45.586643 -122.597316 34 39ft 4kts
13-Jan-21 22:05 45.587948 -122.596047 35 39ft 5kts
13-Jan-21 22:06 45.588174 -122.595812 35 39ft 0kts
13-Jan-21 22:07 45.588174 -122.595812 35 39ft 0kts
13-Jan-21 22:08 45.588174 -122.595812 35 39ft 0kts
13-Jan-21 22:09 45.588174 -122.595812 35 39ft 0kts

Navigation Log

Ident Type
Flight plan parsing failed, navigation log unavailable